Time;durP1;ratioP1;P1;durP2;ratioP2;P2;SDS_P1;SDS_P2;PMS_P1;PMS_P2;Temp;Humidity;BMP_temperature;BMP_pressure;BME280_temperature;BME280_humidity;BME280_pressure;Samples;Min_cycle;Max_cycle;Signal;HPM_P1;HPM_P2
2023/03/08 00:02:24;;;;;;;13.10;9.00;;;26.90;99.90;;;;;;5072954;28;20575;-80
2023/03/08 00:04:58;;;;;;;9.70;4.60;;;26.90;99.90;;;;;;5073311;28;20544;-80
2023/03/08 00:07:29;;;;;;;3.45;1.27;;;27.00;99.90;;;;;;5065828;28;20657;-80
2023/03/08 00:10:00;;;;;;;5.88;1.42;;;27.10;99.90;;;;;;5073317;28;20185;-79
2023/03/08 00:12:34;;;;;;;6.70;1.30;;;27.10;99.90;;;;;;5073486;28;20204;-79
2023/03/08 00:15:09;;;;;;;5.15;1.10;;;27.10;99.90;;;;;;5073118;28;20193;-80
2023/03/08 00:17:43;;;;;;;5.35;1.10;;;27.20;99.90;;;;;;5073114;28;20582;-80
2023/03/08 00:20:15;;;;;;;4.38;1.33;;;27.30;99.90;;;;;;5072206;28;20219;-79
2023/03/08 00:22:46;;;;;;;3.95;1.17;;;27.40;99.90;;;;;;5070214;28;21162;-79
2023/03/08 00:25:17;;;;;;;3.70;1.20;;;27.40;99.90;;;;;;5083510;28;20195;-79
2023/03/08 00:27:50;;;;;;;6.35;1.30;;;27.40;99.90;;;;;;5087233;28;20184;-80
2023/03/08 00:30:21;;;;;;;4.30;1.00;;;27.50;99.90;;;;;;5077804;28;20238;-79
2023/03/08 00:32:52;;;;;;;7.88;1.65;;;27.60;99.90;;;;;;5069577;28;20652;-79
2023/03/08 00:35:23;;;;;;;7.72;1.55;;;27.60;99.90;;;;;;5073301;28;20189;-79
2023/03/08 00:37:55;;;;;;;4.05;1.23;;;27.70;99.90;;;;;;5072264;28;20559;-80
2023/03/08 00:40:26;;;;;;;3.35;1.02;;;27.60;99.90;;;;;;5067685;28;20200;-79
2023/03/08 00:42:59;;;;;;;7.68;1.20;;;27.60;99.90;;;;;;5069688;28;20219;-79
2023/03/08 00:45:30;;;;;;;5.25;1.40;;;27.80;99.90;;;;;;5083403;28;22092;-80
2023/03/08 00:48:01;;;;;;;7.45;1.30;;;27.90;99.90;;;;;;5076405;28;20681;-80
2023/03/08 00:50:33;;;;;;;4.57;1.25;;;28.10;99.90;;;;;;5076104;28;20193;-80
2023/03/08 00:53:06;;;;;;;6.95;1.27;;;28.20;99.90;;;;;;5053030;28;20204;-80
2023/03/08 00:55:38;;;;;;;3.55;1.00;;;28.20;99.90;;;;;;5058987;28;20189;-80
2023/03/08 00:58:13;;;;;;;4.15;1.25;;;28.20;99.90;;;;;;5079529;28;20660;-80
2023/03/08 01:00:45;;;;;;;6.18;1.40;;;28.40;99.90;;;;;;5070113;28;20217;-80
2023/03/08 01:03:16;;;;;;;2.72;1.23;;;28.50;99.90;;;;;;5082738;28;20699;-80
2023/03/08 01:05:48;;;;;;;4.28;1.08;;;28.60;99.90;;;;;;5077394;28;20205;-81
2023/03/08 01:08:20;;;;;;;5.22;1.15;;;28.60;99.90;;;;;;5082855;28;20204;-80
2023/03/08 01:10:52;;;;;;;8.63;1.80;;;28.70;99.90;;;;;;5084628;28;20607;-79
2023/03/08 01:13:25;;;;;;;4.28;0.75;;;28.80;99.90;;;;;;5090881;28;20196;-78
2023/03/08 01:15:56;;;;;;;5.95;0.90;;;28.90;99.90;;;;;;5072120;28;20189;-80
2023/03/08 01:18:28;;;;;;;4.75;0.80;;;29.00;99.00;;;;;;5072076;28;20192;-80
2023/03/08 01:21:02;;;;;;;5.35;1.20;;;29.00;98.80;;;;;;5076334;28;20196;-79
2023/03/08 01:23:33;;;;;;;6.97;1.42;;;29.10;97.30;;;;;;5072829;28;20212;-80
2023/03/08 01:26:06;;;;;;;3.80;1.00;;;29.10;98.20;;;;;;5075431;28;20197;-80
2023/03/08 01:28:39;;;;;;;3.75;0.80;;;29.20;99.40;;;;;;5074037;28;20201;-78
2023/03/08 01:31:12;;;;;;;4.30;1.00;;;29.40;99.90;;;;;;5080039;28;20196;-79
2023/03/08 01:33:45;;;;;;;4.57;1.50;;;29.40;99.90;;;;;;5070824;28;20212;-80
2023/03/08 01:36:19;;;;;;;4.30;1.25;;;29.50;99.60;;;;;;5071816;28;20222;-79
2023/03/08 01:38:50;;;;;;;4.75;0.80;;;29.70;97.40;;;;;;5077790;28;20201;-79
2023/03/08 01:41:23;;;;;;;7.80;1.10;;;29.70;98.00;;;;;;5073265;28;20699;-78
2023/03/08 01:43:56;;;;;;;2.47;0.80;;;29.80;96.30;;;;;;5076267;28;20200;-79
2023/03/08 01:46:30;;;;;;;3.85;0.95;;;29.80;96.60;;;;;;5063878;28;20559;-79
2023/03/08 01:49:07;;;;;;;3.17;1.00;;;29.80;96.50;;;;;;5076144;28;20190;-79
2023/03/08 01:51:41;;;;;;;5.22;1.13;;;29.90;97.10;;;;;;5071728;28;20196;-79
2023/03/08 01:54:16;;;;;;;5.30;0.82;;;30.00;97.60;;;;;;5085356;28;20200;-80
2023/03/08 01:56:51;;;;;;;3.63;1.13;;;30.10;97.90;;;;;;5083097;28;20203;-81
2023/03/08 01:59:26;;;;;;;5.30;0.80;;;30.20;97.10;;;;;;5081458;28;20200;-79
2023/03/08 02:01:57;;;;;;;2.90;0.77;;;30.20;97.20;;;;;;5076832;28;20232;-80
2023/03/08 02:04:28;;;;;;;5.05;0.98;;;30.20;96.60;;;;;;5068958;28;20703;-79
2023/03/08 02:07:00;;;;;;;2.63;0.77;;;30.30;96.80;;;;;;5073027;28;20196;-81
2023/03/08 02:09:31;;;;;;;9.35;1.30;;;30.30;97.10;;;;;;5077796;28;20569;-78
2023/03/08 02:12:05;;;;;;;5.15;1.13;;;30.30;94.20;;;;;;5082139;28;20209;-78
2023/03/08 02:14:40;;;;;;;5.15;1.00;;;30.30;94.60;;;;;;5073453;28;20196;-81
2023/03/08 02:17:11;;;;;;;6.05;1.17;;;30.40;95.90;;;;;;5083582;28;20196;-81
2023/03/08 02:19:50;;;;;;;5.05;1.02;;;30.30;92.80;;;;;;5076907;28;20208;-79
2023/03/08 02:22:22;;;;;;;4.20;0.88;;;30.10;92.60;;;;;;5080383;28;20699;-80
2023/03/08 02:24:56;;;;;;;2.70;0.65;;;30.00;94.70;;;;;;5073994;28;20201;-79
2023/03/08 02:27:31;;;;;;;3.67;0.90;;;30.10;92.50;;;;;;5073910;28;20200;-80
2023/03/08 02:30:04;;;;;;;5.05;1.02;;;30.00;92.80;;;;;;5079125;28;20235;-81
2023/03/08 02:32:35;;;;;;;3.60;0.95;;;30.10;93.90;;;;;;5070782;28;20819;-80
2023/03/08 02:35:06;;;;;;;3.25;1.00;;;30.30;94.10;;;;;;5068534;28;20201;-80
2023/03/08 02:37:37;;;;;;;2.67;0.70;;;30.30;94.40;;;;;;5079572;28;20200;-80
2023/03/08 02:40:12;;;;;;;3.60;0.80;;;30.50;94.40;;;;;;5071194;28;20201;-78
2023/03/08 02:42:43;;;;;;;6.65;0.90;;;30.40;92.10;;;;;;5078076;28;20217;-78
2023/03/08 02:45:14;;;;;;;4.47;0.82;;;30.30;93.00;;;;;;5072088;28;20277;-80
2023/03/08 02:47:45;;;;;;;2.97;0.85;;;30.30;92.30;;;;;;5068503;28;20189;-79
2023/03/08 02:50:16;;;;;;;3.95;0.93;;;30.30;91.90;;;;;;5081958;28;20200;-78
2023/03/08 02:52:47;;;;;;;5.60;1.15;;;30.40;91.80;;;;;;5070150;28;20659;-81
2023/03/08 02:55:21;;;;;;;4.97;0.80;;;30.30;91.30;;;;;;5079400;28;20200;-79
2023/03/08 02:57:52;;;;;;;3.33;0.70;;;30.20;92.30;;;;;;5073690;28;20197;-78
2023/03/08 03:00:23;;;;;;;5.28;0.73;;;30.20;92.00;;;;;;5067576;28;20617;-79
2023/03/08 03:02:54;;;;;;;7.68;1.02;;;30.30;90.80;;;;;;5075297;28;20225;-80
2023/03/08 03:05:25;;;;;;;1.88;0.50;;;30.30;92.90;;;;;;5069638;28;20192;-79
2023/03/08 03:07:57;;;;;;;3.47;0.60;;;30.30;91.90;;;;;;5072149;28;20205;-80
2023/03/08 03:10:30;;;;;;;3.58;0.70;;;30.40;91.20;;;;;;5072368;28;20200;-79
2023/03/08 03:13:01;;;;;;;5.80;1.00;;;30.40;92.10;;;;;;5076565;28;20192;-80
2023/03/08 03:15:32;;;;;;;6.32;1.00;;;30.50;92.00;;;;;;5089684;28;20200;-79
2023/03/08 03:18:04;;;;;;;6.03;0.90;;;30.50;91.70;;;;;;5082249;28;20207;-79
2023/03/08 03:20:35;;;;;;;5.05;0.93;;;30.40;91.30;;;;;;5079360;28;20239;-80
2023/03/08 03:23:09;;;;;;;2.33;0.60;;;30.40;91.80;;;;;;5071118;28;20714;-80
2023/03/08 03:25:42;;;;;;;5.25;0.90;;;30.40;91.50;;;;;;5079686;28;20669;-80
2023/03/08 03:28:13;;;;;;;3.17;0.95;;;30.50;92.70;;;;;;5079154;28;20209;-86
2023/03/08 03:30:44;;;;;;;4.32;1.02;;;30.50;94.20;;;;;;5071993;28;20232;-80
2023/03/08 03:33:15;;;;;;;4.22;1.10;;;30.70;98.70;;;;;;5074967;28;20209;-84
2023/03/08 03:35:46;;;;;;;5.75;1.33;;;30.70;99.50;;;;;;5070350;28;20214;-79
2023/03/08 03:38:17;;;;;;;3.78;1.30;;;30.60;99.90;;;;;;5073437;28;20197;-80
2023/03/08 03:40:50;;;;;;;3.78;1.00;;;30.10;99.90;;;;;;5072484;28;20196;-81
2023/03/08 03:43:22;;;;;;;5.90;1.25;;;30.00;99.90;;;;;;5073509;28;20575;-78
2023/03/08 03:45:58;;;;;;;6.18;1.30;;;29.80;99.90;;;;;;5072511;28;20309;-81
2023/03/08 03:48:30;;;;;;;6.20;1.33;;;29.50;99.90;;;;;;5084734;28;20557;-79
2023/03/08 03:51:02;;;;;;;7.25;1.55;;;29.20;99.90;;;;;;5073020;28;20200;-81
2023/03/08 03:53:34;;;;;;;5.20;1.10;;;29.00;99.90;;;;;;5072589;28;20196;-80
2023/03/08 03:56:09;;;;;;;5.63;1.10;;;28.80;99.90;;;;;;5070993;28;20193;-81
2023/03/08 03:58:40;;;;;;;7.07;1.30;;;28.70;99.90;;;;;;5079024;28;20671;-80
2023/03/08 04:01:12;;;;;;;3.85;1.25;;;28.80;99.90;;;;;;5070927;28;20216;-80
2023/03/08 04:03:44;;;;;;;4.15;1.20;;;28.80;99.90;;;;;;5072860;28;20221;-80
2023/03/08 04:06:17;;;;;;;4.32;1.20;;;28.60;99.90;;;;;;5087201;28;20196;-79
2023/03/08 04:08:48;;;;;;;3.78;1.13;;;28.70;99.90;;;;;;5070943;28;20204;-81
2023/03/08 04:11:25;;;;;;;6.47;1.30;;;28.70;99.90;;;;;;5088227;28;20196;-80
2023/03/08 04:13:57;;;;;;;5.38;1.20;;;28.70;99.90;;;;;;5073218;28;20189;-80
2023/03/08 04:16:31;;;;;;;5.60;1.52;;;28.70;99.90;;;;;;5073435;28;20191;-79
2023/03/08 04:19:04;;;;;;;6.38;1.35;;;28.70;99.90;;;;;;5073512;28;20204;-81
2023/03/08 04:21:36;;;;;;;2.88;1.20;;;28.80;99.90;;;;;;5073505;28;20196;-79
2023/03/08 04:24:09;;;;;;;5.78;1.35;;;28.80;99.90;;;;;;5073191;28;20684;-80
2023/03/08 04:26:42;;;;;;;6.05;1.40;;;28.70;99.90;;;;;;5073782;28;20196;-80
2023/03/08 04:29:13;;;;;;;5.18;1.10;;;28.40;99.90;;;;;;5072988;28;20229;-80
2023/03/08 04:31:44;;;;;;;4.53;1.13;;;28.10;99.90;;;;;;5073330;28;20192;-80
2023/03/08 04:34:16;;;;;;;5.97;1.27;;;27.90;99.90;;;;;;5073721;28;20189;-81
2023/03/08 04:36:47;;;;;;;6.78;1.63;;;27.90;99.90;;;;;;5072874;28;20196;-80
2023/03/08 04:39:18;;;;;;;5.53;1.20;;;27.90;99.90;;;;;;5072897;28;20193;-80
2023/03/08 04:41:51;;;;;;;5.47;1.33;;;27.70;99.90;;;;;;5073206;28;20207;-81
2023/03/08 04:44:22;;;;;;;6.28;1.20;;;27.70;99.90;;;;;;5072790;28;20212;-80
2023/03/08 04:46:53;;;;;;;4.20;1.48;;;27.70;99.90;;;;;;5073758;28;20196;-81
2023/03/08 04:49:25;;;;;;;4.32;1.13;;;27.70;99.90;;;;;;5072504;28;20273;-81
2023/03/08 04:51:56;;;;;;;6.63;1.20;;;27.70;99.90;;;;;;5073292;28;20189;-85
2023/03/08 04:54:27;;;;;;;6.80;1.40;;;27.90;99.90;;;;;;5073194;28;20193;-79
2023/03/08 04:57:00;;;;;;;3.45;0.95;;;28.00;99.90;;;;;;5072986;28;20189;-78
2023/03/08 04:59:31;;;;;;;7.60;0.90;;;28.00;99.90;;;;;;5072221;28;20185;-80
2023/03/08 05:02:02;;;;;;;3.75;0.95;;;28.00;99.90;;;;;;5072173;28;20200;-80
2023/03/08 05:04:33;;;;;;;3.40;1.30;;;28.20;99.90;;;;;;5073111;28;20220;-80
2023/03/08 05:07:04;;;;;;;4.82;1.15;;;28.20;99.90;;;;;;5073082;28;20533;-81
2023/03/08 05:09:36;;;;;;;6.18;1.15;;;28.30;99.90;;;;;;5072785;28;20193;-79
2023/03/08 05:12:09;;;;;;;4.80;1.13;;;28.30;99.90;;;;;;5072780;28;20196;-80
2023/03/08 05:14:40;;;;;;;8.70;1.38;;;28.10;99.90;;;;;;5071708;28;20204;-81
2023/03/08 05:17:11;;;;;;;5.95;1.15;;;28.00;99.90;;;;;;5072891;28;20193;-79
2023/03/08 05:19:42;;;;;;;6.25;1.10;;;27.90;99.90;;;;;;5071473;28;20668;-80
2023/03/08 05:22:13;;;;;;;3.58;0.90;;;27.80;99.90;;;;;;5072411;28;20196;-80
2023/03/08 05:24:45;;;;;;;3.75;1.10;;;27.80;99.90;;;;;;5069528;28;20221;-80
2023/03/08 05:27:18;;;;;;;9.77;1.40;;;27.70;99.90;;;;;;5071776;28;20278;-81
2023/03/08 05:29:52;;;;;;;5.97;1.40;;;27.70;99.90;;;;;;5072404;28;20233;-81
2023/03/08 05:32:23;;;;;;;3.88;1.10;;;27.60;99.90;;;;;;5072626;28;20202;-81
2023/03/08 05:34:56;;;;;;;6.65;1.23;;;27.60;99.90;;;;;;5072536;28;20197;-79
2023/03/08 05:37:27;;;;;;;5.03;1.25;;;27.50;99.90;;;;;;5072898;28;20275;-80
2023/03/08 05:39:58;;;;;;;5.38;1.13;;;27.30;99.90;;;;;;5072999;28;20189;-79
2023/03/08 05:42:34;;;;;;;4.25;1.02;;;27.30;99.90;;;;;;5072432;28;20285;-80
2023/03/08 05:45:05;;;;;;;3.58;1.30;;;27.20;99.90;;;;;;5072781;28;20200;-81
2023/03/08 05:47:36;;;;;;;5.38;1.20;;;27.10;99.90;;;;;;5072648;28;20632;-81
2023/03/08 05:50:08;;;;;;;6.57;1.40;;;27.00;99.90;;;;;;5073690;28;20200;-80
2023/03/08 05:52:41;;;;;;;5.03;1.08;;;27.00;99.90;;;;;;5076262;28;20189;-80
2023/03/08 05:55:12;;;;;;;7.88;1.10;;;26.80;99.90;;;;;;5076295;28;20287;-81
2023/03/08 05:57:46;;;;;;;6.68;1.30;;;26.80;99.90;;;;;;5067781;28;20202;-79
2023/03/08 06:00:19;;;;;;;4.35;1.10;;;26.70;99.90;;;;;;5075891;28;20217;-80
2023/03/08 06:02:50;;;;;;;5.05;1.10;;;26.50;99.90;;;;;;5075892;28;20197;-80
2023/03/08 06:05:21;;;;;;;5.15;1.20;;;26.40;99.90;;;;;;5075988;28;20200;-80
2023/03/08 06:07:52;;;;;;;6.57;1.10;;;26.30;99.90;;;;;;5077199;28;20644;-80
2023/03/08 06:10:23;;;;;;;5.53;1.00;;;26.20;99.90;;;;;;5093802;28;20197;-81
2023/03/08 06:12:56;;;;;;;4.22;1.00;;;26.10;99.90;;;;;;5078698;28;20218;-81
2023/03/08 06:15:27;;;;;;;6.90;1.13;;;26.10;99.90;;;;;;5080855;28;20207;-80
2023/03/08 06:17:58;;;;;;;4.43;1.10;;;26.10;99.90;;;;;;5069960;28;20212;-80
2023/03/08 06:20:30;;;;;;;7.80;1.33;;;26.00;99.90;;;;;;5069942;28;20194;-80
2023/03/08 06:23:01;;;;;;;3.92;1.20;;;25.90;99.90;;;;;;5081261;28;20204;-79
2023/03/08 06:25:33;;;;;;;5.22;1.20;;;25.90;99.90;;;;;;5079250;28;20189;-80
2023/03/08 06:28:06;;;;;;;8.80;1.30;;;25.90;99.90;;;;;;5075237;28;20219;-81
2023/03/08 06:30:37;;;;;;;6.28;1.20;;;25.80;99.90;;;;;;5086951;28;20598;-80
2023/03/08 06:33:08;;;;;;;5.47;1.20;;;25.80;99.90;;;;;;5071841;28;20192;-81
2023/03/08 06:35:39;;;;;;;5.15;1.27;;;25.70;99.90;;;;;;5067423;28;20209;-80
2023/03/08 06:38:12;;;;;;;5.68;1.48;;;25.70;99.90;;;;;;5076906;28;20196;-80
2023/03/08 06:40:43;;;;;;;6.68;1.63;;;25.70;99.90;;;;;;5080294;28;20189;-80
2023/03/08 06:43:17;;;;;;;5.20;1.20;;;25.70;99.90;;;;;;5078344;28;20229;-80
2023/03/08 06:45:48;;;;;;;5.35;1.30;;;25.60;99.90;;;;;;5082955;28;20195;-80
2023/03/08 06:48:19;;;;;;;5.60;1.30;;;25.60;99.90;;;;;;5088217;28;20197;-81
2023/03/08 06:50:50;;;;;;;5.80;1.25;;;25.60;99.90;;;;;;5064802;28;20566;-80
2023/03/08 06:53:21;;;;;;;6.53;1.80;;;25.60;99.90;;;;;;5086810;28;20200;-81
2023/03/08 06:55:52;;;;;;;5.65;1.20;;;25.60;99.90;;;;;;5095142;28;20202;-81
2023/03/08 06:58:25;;;;;;;7.78;1.60;;;25.60;99.90;;;;;;5082870;28;20200;-81
2023/03/08 07:00:58;;;;;;;5.40;1.25;;;25.60;99.90;;;;;;5073579;28;20706;-81
2023/03/08 07:03:29;;;;;;;5.05;1.20;;;25.60;99.90;;;;;;5095039;28;20258;-80
2023/03/08 07:06:03;;;;;;;8.20;1.20;;;25.60;99.90;;;;;;5076004;28;20207;-80
2023/03/08 07:08:34;;;;;;;7.05;1.20;;;25.60;99.90;;;;;;5075516;28;20196;-80
2023/03/08 07:11:05;;;;;;;3.95;1.20;;;25.60;99.90;;;;;;5069871;28;20655;-80
2023/03/08 07:13:39;;;;;;;6.57;1.25;;;25.60;99.90;;;;;;5074487;28;20193;-81
2023/03/08 07:16:11;;;;;;;8.38;1.20;;;25.50;99.90;;;;;;5077459;28;20282;-80
2023/03/08 07:18:45;;;;;;;5.45;1.25;;;25.50;99.90;;;;;;5069874;28;20200;-81
2023/03/08 07:21:16;;;;;;;8.75;1.20;;;25.50;99.90;;;;;;5070911;28;20192;-80
2023/03/08 07:23:47;;;;;;;4.03;1.00;;;25.40;99.90;;;;;;5063729;28;20219;-81
2023/03/08 07:26:18;;;;;;;4.55;1.13;;;25.40;99.90;;;;;;5071883;28;20213;-79
2023/03/08 07:28:54;;;;;;;4.82;1.08;;;25.30;99.90;;;;;;5073556;28;20201;-79
2023/03/08 07:31:25;;;;;;;5.45;1.20;;;25.30;99.90;;;;;;5072971;28;20243;-80
2023/03/08 07:33:56;;;;;;;5.05;1.30;;;25.30;99.90;;;;;;5081761;28;20205;-81
2023/03/08 07:36:27;;;;;;;6.80;1.23;;;25.30;99.90;;;;;;5070480;28;20197;-80
2023/03/08 07:38:59;;;;;;;5.20;1.20;;;25.20;99.90;;;;;;5070746;28;20657;-80
2023/03/08 07:41:31;;;;;;;8.60;1.20;;;25.10;99.90;;;;;;5076148;28;20538;-80
2023/03/08 07:44:04;;;;;;;5.93;1.10;;;25.00;99.90;;;;;;5069172;28;20606;-81
2023/03/08 07:46:36;;;;;;;9.27;1.48;;;25.00;99.90;;;;;;5078372;28;20667;-81
2023/03/08 07:49:10;;;;;;;5.88;1.50;;;25.00;99.90;;;;;;5075417;28;20430;-81
2023/03/08 07:51:41;;;;;;;4.57;1.05;;;24.90;99.90;;;;;;5076526;28;20194;-80
2023/03/08 07:54:14;;;;;;;7.35;1.15;;;24.80;99.90;;;;;;5067664;28;20200;-80
2023/03/08 07:56:45;;;;;;;5.80;1.00;;;24.80;99.90;;;;;;5069734;28;20204;-80
2023/03/08 07:59:18;;;;;;;8.10;1.30;;;24.70;99.90;;;;;;5064854;28;20231;-80
2023/03/08 08:01:49;;;;;;;6.22;1.10;;;24.70;99.90;;;;;;5081743;28;20678;-80
2023/03/08 08:04:21;;;;;;;5.03;1.25;;;24.60;99.90;;;;;;5082360;28;20216;-80
2023/03/08 08:06:53;;;;;;;4.15;1.33;;;24.60;99.90;;;;;;5068695;28;20189;-80
2023/03/08 08:09:24;;;;;;;6.82;1.40;;;24.60;99.90;;;;;;5068872;28;20216;-80
2023/03/08 08:11:55;;;;;;;6.65;1.52;;;24.50;99.90;;;;;;5075717;28;20628;-80
2023/03/08 08:14:28;;;;;;;4.43;1.27;;;24.50;99.90;;;;;;5068636;28;20203;-80
2023/03/08 08:16:59;;;;;;;5.45;1.20;;;24.40;99.90;;;;;;5077001;28;20196;-79
2023/03/08 08:19:30;;;;;;;7.05;1.30;;;24.40;99.90;;;;;;5083455;28;20564;-80
2023/03/08 08:22:02;;;;;;;7.70;1.48;;;24.30;99.90;;;;;;5075247;28;20200;-80
2023/03/08 08:24:33;;;;;;;8.63;1.40;;;24.30;99.90;;;;;;5072611;28;20217;-80
2023/03/08 08:27:04;;;;;;;5.80;1.27;;;24.30;99.90;;;;;;5073276;28;20200;-80
2023/03/08 08:29:38;;;;;;;6.90;1.63;;;24.30;99.90;;;;;;5074672;28;20235;-80
2023/03/08 08:32:09;;;;;;;7.80;1.90;;;24.20;99.90;;;;;;5080516;28;20195;-80
2023/03/08 08:34:44;;;;;;;4.43;1.45;;;24.10;99.90;;;;;;5074146;28;20196;-80
2023/03/08 08:37:15;;;;;;;6.43;1.98;;;24.10;99.90;;;;;;5071690;28;20210;-80
2023/03/08 08:39:46;;;;;;;6.30;1.90;;;24.10;99.90;;;;;;5058366;28;20209;-80
2023/03/08 08:42:17;;;;;;;6.90;1.80;;;24.10;99.90;;;;;;5076481;28;20193;-80
2023/03/08 08:44:50;;;;;;;9.57;2.20;;;24.00;99.90;;;;;;5071882;28;20220;-80
2023/03/08 08:47:21;;;;;;;10.95;2.25;;;24.00;99.90;;;;;;5074860;28;20192;-80
2023/03/08 08:49:53;;;;;;;6.32;1.80;;;24.00;99.90;;;;;;5074536;28;20200;-80
2023/03/08 08:52:24;;;;;;;7.28;1.80;;;24.00;99.90;;;;;;5075081;28;20197;-80
2023/03/08 08:54:56;;;;;;;9.68;2.00;;;23.90;99.90;;;;;;5070096;28;20196;-81
2023/03/08 08:57:27;;;;;;;5.28;1.50;;;23.90;99.90;;;;;;5071958;28;20200;-80
2023/03/08 09:00:04;;;;;;;7.20;1.45;;;23.80;99.90;;;;;;5073293;28;20219;-80
2023/03/08 09:02:36;;;;;;;5.95;1.50;;;23.80;99.90;;;;;;5060030;28;20200;-80
2023/03/08 09:05:07;;;;;;;7.97;1.48;;;23.70;99.90;;;;;;5074238;28;20215;-80
2023/03/08 09:07:38;;;;;;;5.47;1.40;;;23.80;99.90;;;;;;5072652;28;20600;-80
2023/03/08 09:10:10;;;;;;;3.03;1.20;;;23.70;99.90;;;;;;5072680;28;20691;-80
2023/03/08 09:12:42;;;;;;;5.50;1.30;;;23.70;99.90;;;;;;5079675;28;20671;-81
2023/03/08 09:15:15;;;;;;;4.38;1.40;;;23.70;99.90;;;;;;5075479;28;20605;-80
2023/03/08 09:17:46;;;;;;;6.45;1.67;;;23.70;99.90;;;;;;5077631;28;20196;-81
2023/03/08 09:20:18;;;;;;;10.20;1.77;;;23.70;99.90;;;;;;5070172;28;20193;-80
2023/03/08 09:22:49;;;;;;;8.43;2.08;;;23.60;99.90;;;;;;5071998;28;20200;-80
2023/03/08 09:25:22;;;;;;;7.95;2.00;;;23.60;99.90;;;;;;5071782;28;20217;-80
2023/03/08 09:27:57;;;;;;;5.47;1.95;;;23.60;99.90;;;;;;5077695;28;20189;-80
2023/03/08 09:30:31;;;;;;;5.57;1.98;;;23.60;99.90;;;;;;5076142;28;20233;-80
2023/03/08 09:33:03;;;;;;;7.38;2.17;;;23.60;99.90;;;;;;5078500;28;20204;-80
2023/03/08 09:35:34;;;;;;;6.85;1.77;;;23.60;99.90;;;;;;5072936;28;20196;-80
2023/03/08 09:38:05;;;;;;;6.75;1.55;;;23.60;99.90;;;;;;5074526;28;20196;-81
2023/03/08 09:40:42;;;;;;;5.28;1.60;;;23.60;99.90;;;;;;5086844;28;20207;-80
2023/03/08 09:43:23;;;;;;;8.10;1.95;;;23.50;99.90;;;;;;5075656;28;20191;-81
2023/03/08 09:45:58;;;;;;;7.72;1.90;;;23.50;99.90;;;;;;5085810;28;20212;-80
2023/03/08 09:48:31;;;;;;;6.07;1.90;;;23.50;99.90;;;;;;5070818;28;20203;-80
2023/03/08 09:51:10;;;;;;;6.38;2.10;;;23.50;99.90;;;;;;5072420;28;20204;-80
2023/03/08 09:53:46;;;;;;;8.05;2.15;;;23.50;99.90;;;;;;5083675;28;20204;-80
2023/03/08 09:56:30;;;;;;;7.85;2.30;;;23.50;99.90;;;;;;5083238;28;20196;-80
2023/03/08 09:59:07;;;;;;;7.97;2.00;;;23.40;99.90;;;;;;5073196;28;20204;-81
2023/03/08 10:01:46;;;;;;;8.43;1.90;;;23.40;99.90;;;;;;5073172;28;20199;-80
2023/03/08 10:04:30;;;;;;;5.45;1.77;;;23.40;99.90;;;;;;5073938;28;20212;-80
2023/03/08 10:07:12;;;;;;;5.22;1.80;;;23.30;99.90;;;;;;5069700;28;20246;-80
2023/03/08 10:09:46;;;;;;;11.98;2.20;;;23.30;99.90;;;;;;5074503;28;20189;-80
2023/03/08 10:12:24;;;;;;;6.80;1.85;;;23.20;99.90;;;;;;5074905;28;20184;-80
2023/03/08 10:14:59;;;;;;;6.40;2.00;;;23.20;99.90;;;;;;5075534;28;20185;-81
2023/03/08 10:17:40;;;;;;;7.03;1.73;;;23.20;99.90;;;;;;5075503;28;20189;-81
2023/03/08 10:20:20;;;;;;;5.45;1.90;;;23.10;99.90;;;;;;5075685;28;20196;-81
2023/03/08 10:22:57;;;;;;;11.13;2.20;;;23.10;99.90;;;;;;5075576;28;20189;-80
2023/03/08 10:25:30;;;;;;;9.40;2.17;;;23.10;99.90;;;;;;5075622;28;20694;-81
2023/03/08 10:28:05;;;;;;;6.45;2.00;;;23.10;99.90;;;;;;5075349;28;20283;-81
2023/03/08 10:30:38;;;;;;;7.85;2.28;;;23.10;99.90;;;;;;5075028;28;20240;-80
2023/03/08 10:33:12;;;;;;;6.10;1.80;;;23.10;99.90;;;;;;5075495;28;20185;-81
2023/03/08 10:35:57;;;;;;;6.30;1.80;;;23.10;99.90;;;;;;5074441;28;20215;-80
2023/03/08 10:38:31;;;;;;;7.30;1.83;;;23.10;99.90;;;;;;5055231;28;20562;-81
2023/03/08 10:41:08;;;;;;;6.90;1.52;;;23.00;99.90;;;;;;5055589;28;20276;-81
2023/03/08 10:43:43;;;;;;;6.95;2.00;;;23.00;99.90;;;;;;5075373;28;20189;-81
2023/03/08 10:46:16;;;;;;;6.80;1.92;;;23.00;99.90;;;;;;5075414;28;20220;-81
2023/03/08 10:48:49;;;;;;;6.90;2.00;;;23.00;99.90;;;;;;5075286;28;20204;-80
2023/03/08 10:51:22;;;;;;;8.65;1.98;;;23.00;99.90;;;;;;5075247;28;20548;-80
2023/03/08 10:53:57;;;;;;;6.38;1.67;;;23.00;99.90;;;;;;5074705;28;20197;-81
2023/03/08 10:56:33;;;;;;;6.28;1.60;;;23.00;99.90;;;;;;5075061;28;20193;-80
2023/03/08 10:59:04;;;;;;;5.75;1.60;;;23.00;99.90;;;;;;5074966;28;20224;-80
2023/03/08 11:01:38;;;;;;;5.50;1.50;;;23.00;99.90;;;;;;5074776;28;20196;-80
2023/03/08 11:04:19;;;;;;;5.90;1.40;;;23.00;99.90;;;;;;5075056;28;20191;-80
2023/03/08 11:06:50;;;;;;;3.90;1.27;;;23.00;99.90;;;;;;5074697;28;20197;-81
2023/03/08 11:09:26;;;;;;;2.30;0.93;;;22.90;99.90;;;;;;5074931;28;20192;-81
2023/03/08 11:11:58;;;;;;;4.88;0.98;;;22.90;99.90;;;;;;5074678;28;20196;-80
2023/03/08 11:14:30;;;;;;;4.70;1.10;;;22.90;99.90;;;;;;5074769;28;20189;-80
2023/03/08 11:17:14;;;;;;;5.32;1.33;;;22.80;99.90;;;;;;5074599;28;20193;-80
2023/03/08 11:19:59;;;;;;;5.07;1.02;;;22.80;99.90;;;;;;5074614;28;20215;-80
2023/03/08 11:22:49;;;;;;;4.50;0.93;;;22.70;99.90;;;;;;5074339;28;20192;-80
2023/03/08 11:25:34;;;;;;;3.28;0.70;;;22.70;99.90;;;;;;5074160;28;20239;-80
2023/03/08 11:28:35;;;;;;;2.75;0.90;;;22.70;99.90;;;;;;5074341;28;20200;-80
2023/03/08 11:31:20;;;;;;;5.32;0.90;;;22.60;99.90;;;;;;5074138;28;20200;-81
2023/03/08 11:34:19;;;;;;;5.93;1.02;;;22.60;99.90;;;;;;5074424;28;20189;-81
2023/03/08 11:36:59;;;;;;;2.25;0.88;;;22.50;99.90;;;;;;5072379;28;20204;-81
2023/03/08 11:39:34;;;;;;;5.82;0.90;;;22.40;99.90;;;;;;5074510;28;20208;-81
2023/03/08 11:42:16;;;;;;;3.08;0.70;;;22.40;99.90;;;;;;5074275;28;20199;-80
2023/03/08 11:44:58;;;;;;;3.90;0.80;;;22.40;99.90;;;;;;5073819;28;20228;-80
2023/03/08 11:48:03;;;;;;;2.28;0.70;;;22.40;99.90;;;;;;5073232;28;20219;-80
2023/03/08 11:50:37;;;;;;;2.88;0.70;;;22.40;99.90;;;;;;5073918;28;20189;-80
2023/03/08 11:53:19;;;;;;;3.92;0.90;;;22.40;99.90;;;;;;5073750;28;20193;-80
2023/03/08 11:56:05;;;;;;;3.00;0.60;;;22.30;99.90;;;;;;5074355;28;20199;-81
2023/03/08 11:58:40;;;;;;;4.07;0.90;;;22.30;99.90;;;;;;5074027;28;20191;-80
2023/03/08 12:01:17;;;;;;;3.08;0.80;;;22.30;99.90;;;;;;5067603;28;20195;-80
2023/03/08 12:03:52;;;;;;;3.40;0.90;;;22.30;99.90;;;;;;5073843;28;20216;-80
2023/03/08 12:06:27;;;;;;;2.42;0.80;;;22.20;99.90;;;;;;5073371;28;20688;-80
2023/03/08 12:09:06;;;;;;;3.75;0.60;;;22.20;99.90;;;;;;5073603;28;20188;-80
2023/03/08 12:11:43;;;;;;;2.55;0.80;;;22.20;99.90;;;;;;5073806;28;20287;-80
2023/03/08 12:14:19;;;;;;;2.53;0.77;;;22.20;99.90;;;;;;5073886;28;20205;-80
2023/03/08 12:16:53;;;;;;;2.80;0.65;;;22.20;99.90;;;;;;5072479;28;20652;-80
2023/03/08 12:19:33;;;;;;;2.03;0.75;;;22.20;99.90;;;;;;5073378;28;20205;-80
2023/03/08 12:22:14;;;;;;;3.10;1.00;;;22.30;99.90;;;;;;5073431;28;20641;-79
2023/03/08 12:24:52;;;;;;;1.95;0.90;;;22.30;99.90;;;;;;5073425;28;20192;-79
2023/03/08 12:27:27;;;;;;;2.63;0.80;;;22.40;99.90;;;;;;5073749;28;20199;-79
2023/03/08 12:30:06;;;;;;;3.40;0.70;;;22.40;99.90;;;;;;5070994;28;20231;-80
2023/03/08 12:32:41;;;;;;;2.25;0.95;;;22.40;99.90;;;;;;5073391;28;20196;-81
2023/03/08 12:35:32;;;;;;;2.78;0.68;;;22.40;99.90;;;;;;5073052;28;20216;-80
2023/03/08 12:38:06;;;;;;;4.70;0.82;;;22.40;99.90;;;;;;5073410;28;20196;-80
2023/03/08 12:40:44;;;;;;;3.60;0.88;;;22.50;99.90;;;;;;5072991;28;20193;-80
2023/03/08 12:43:29;;;;;;;2.85;0.80;;;22.50;99.90;;;;;;5073182;28;20609;-81
2023/03/08 12:46:08;;;;;;;3.97;0.70;;;22.40;99.90;;;;;;5075591;28;20236;-81
2023/03/08 12:48:43;;;;;;;4.05;0.90;;;22.50;99.90;;;;;;5073170;28;20208;-80
2023/03/08 12:51:25;;;;;;;3.05;0.70;;;22.40;99.90;;;;;;5073244;28;20211;-80
2023/03/08 12:54:02;;;;;;;2.85;0.57;;;22.40;99.90;;;;;;5073150;28;20216;-80
2023/03/08 12:56:39;;;;;;;1.20;0.50;;;22.40;99.90;;;;;;5073524;28;20227;-81
2023/03/08 12:59:31;;;;;;;3.05;0.60;;;22.40;99.90;;;;;;5074426;28;20220;-80
2023/03/08 13:02:21;;;;;;;1.13;0.50;;;22.30;99.90;;;;;;5077358;28;20189;-80
2023/03/08 13:05:02;;;;;;;3.65;0.70;;;22.10;99.90;;;;;;5075161;28;20207;-80
2023/03/08 13:07:38;;;;;;;2.53;0.50;;;22.00;99.90;;;;;;5077156;28;20201;-80
2023/03/08 13:10:20;;;;;;;3.40;0.65;;;21.80;99.90;;;;;;5077074;28;20197;-80
2023/03/08 13:13:16;;;;;;;1.42;0.80;;;21.70;99.90;;;;;;5056902;28;20185;-80
2023/03/08 13:15:47;;;;;;;2.40;0.52;;;21.60;99.90;;;;;;5060110;28;20211;-80
2023/03/08 13:18:21;;;;;;;3.63;0.77;;;21.50;99.90;;;;;;5057095;28;20193;-80
2023/03/08 13:21:09;;;;;;;1.27;0.63;;;21.40;99.90;;;;;;5056921;28;20186;-80